sensor_id;sensor_type;location;lat;lon;timestamp;pressure;altitude;pressure_sealevel;temperature;humidity
74346;BME280;62776;50.518;6.732;2024-03-23T00:54:56;95856.16;;;6.50;100.00
74346;BME280;62776;50.518;6.732;2024-03-23T00:57:42;95848.47;;;6.35;100.00
74346;BME280;62776;50.518;6.732;2024-03-23T01:00:28;95863.13;;;6.33;100.00
74346;BME280;62776;50.518;6.732;2024-03-23T01:03:14;95860.53;;;6.36;100.00
74346;BME280;62776;50.518;6.732;2024-03-23T01:06:04;95867.44;;;6.27;100.00
74346;BME280;62776;50.518;6.732;2024-03-23T01:08:50;95864.00;;;6.28;100.00
74346;BME280;62776;50.518;6.732;2024-03-23T01:11:37;95858.88;;;6.23;100.00
74346;BME280;62776;50.518;6.732;2024-03-23T01:14:23;95858.91;;;6.17;100.00
74346;BME280;62776;50.518;6.732;2024-03-23T01:17:11;95859.75;;;6.16;100.00
74346;BME280;62776;50.518;6.732;2024-03-23T01:19:57;95858.06;;;6.12;100.00
74346;BME280;62776;50.518;6.732;2024-03-23T01:22:43;95860.66;;;6.06;100.00
74346;BME280;62776;50.518;6.732;2024-03-23T01:25:32;95864.97;;;6.03;100.00
74346;BME280;62776;50.518;6.732;2024-03-23T01:28:19;95872.72;;;6.00;100.00
74346;BME280;62776;50.518;6.732;2024-03-23T01:31:05;95857.25;;;6.01;100.00
74346;BME280;62776;50.518;6.732;2024-03-23T01:33:51;95854.72;;;5.87;100.00
74346;BME280;62776;50.518;6.732;2024-03-23T01:36:38;95847.84;;;5.79;100.00
74346;BME280;62776;50.518;6.732;2024-03-23T01:39:25;95843.53;;;5.81;100.00
74346;BME280;62776;50.518;6.732;2024-03-23T01:42:11;95852.16;;;5.87;100.00
74346;BME280;62776;50.518;6.732;2024-03-23T01:44:57;95845.25;;;5.88;100.00
74346;BME280;62776;50.518;6.732;2024-03-23T01:47:44;95838.41;;;5.87;100.00
74346;BME280;62776;50.518;6.732;2024-03-23T01:50:32;95837.56;;;5.85;100.00
74346;BME280;62776;50.518;6.732;2024-03-23T01:53:22;95840.97;;;5.87;100.00
74346;BME280;62776;50.518;6.732;2024-03-23T01:56:09;95837.50;;;5.91;100.00
74346;BME280;62776;50.518;6.732;2024-03-23T01:58:55;95834.09;;;5.87;100.00
74346;BME280;62776;50.518;6.732;2024-03-23T02:01:41;95834.06;;;5.83;100.00
74346;BME280;62776;50.518;6.732;2024-03-23T02:04:27;95834.06;;;5.80;100.00
74346;BME280;62776;50.518;6.732;2024-03-23T02:07:14;95832.38;;;5.82;100.00
74346;BME280;62776;50.518;6.732;2024-03-23T02:10:00;95825.50;;;5.87;100.00
74346;BME280;62776;50.518;6.732;2024-03-23T02:12:48;95830.63;;;5.81;100.00
74346;BME280;62776;50.518;6.732;2024-03-23T02:15:34;95832.34;;;5.83;100.00
74346;BME280;62776;50.518;6.732;2024-03-23T02:18:20;95835.81;;;5.85;100.00
74346;BME280;62776;50.518;6.732;2024-03-23T02:21:06;95838.38;;;5.90;100.00
74346;BME280;62776;50.518;6.732;2024-03-23T02:23:53;95822.06;;;5.82;100.00
74346;BME280;62776;50.518;6.732;2024-03-23T02:26:39;95807.47;;;5.73;100.00
74346;BME280;62776;50.518;6.732;2024-03-23T02:29:28;95828.13;;;5.66;100.00
74346;BME280;62776;50.518;6.732;2024-03-23T02:32:15;95827.25;;;5.58;100.00
74346;BME280;62776;50.518;6.732;2024-03-23T02:35:02;95825.59;;;5.45;100.00
74346;BME280;62776;50.518;6.732;2024-03-23T02:37:50;95837.63;;;5.44;100.00
74346;BME280;62776;50.518;6.732;2024-03-23T02:40:36;95838.50;;;5.43;100.00
74346;BME280;62776;50.518;6.732;2024-03-23T02:43:23;95844.50;;;5.39;100.00
74346;BME280;62776;50.518;6.732;2024-03-23T02:46:09;95846.25;;;5.23;100.00
74346;BME280;62776;50.518;6.732;2024-03-23T02:48:55;95841.09;;;5.17;100.00
74346;BME280;62776;50.518;6.732;2024-03-23T02:51:43;95844.56;;;5.13;100.00
74346;BME280;62776;50.518;6.732;2024-03-23T02:54:31;95851.41;;;5.10;100.00
74346;BME280;62776;50.518;6.732;2024-03-23T02:57:17;95850.56;;;4.94;100.00
74346;BME280;62776;50.518;6.732;2024-03-23T03:00:04;95847.97;;;4.82;100.00
74346;BME280;62776;50.518;6.732;2024-03-23T03:02:51;95860.81;;;4.59;100.00
74346;BME280;62776;50.518;6.732;2024-03-23T03:05:37;95867.66;;;4.39;100.00
74346;BME280;62776;50.518;6.732;2024-03-23T03:08:23;95865.03;;;4.21;100.00
74346;BME280;62776;50.518;6.732;2024-03-23T03:11:10;95858.16;;;4.15;100.00
74346;BME280;62776;50.518;6.732;2024-03-23T03:13:56;95866.69;;;4.04;100.00
74346;BME280;62776;50.518;6.732;2024-03-23T03:16:42;95863.25;;;3.97;100.00
74346;BME280;62776;50.518;6.732;2024-03-23T03:19:28;95859.81;;;3.92;100.00
74346;BME280;62776;50.518;6.732;2024-03-23T03:22:14;95866.66;;;3.93;100.00
74346;BME280;62776;50.518;6.732;2024-03-23T03:43:16;95862.16;;;3.50;100.00
74346;BME280;62776;50.518;6.732;2024-03-23T03:46:03;95865.63;;;3.56;100.00
74346;BME280;62776;50.518;6.732;2024-03-23T03:48:49;95863.03;;;3.55;100.00
74346;BME280;62776;50.518;6.732;2024-03-23T03:51:36;95863.00;;;3.49;100.00
74346;BME280;62776;50.518;6.732;2024-03-23T03:54:22;95876.75;;;3.54;100.00
74346;BME280;62776;50.518;6.732;2024-03-23T03:57:08;95877.59;;;3.57;100.00
74346;BME280;62776;50.518;6.732;2024-03-23T03:59:56;95875.91;;;3.58;100.00
74346;BME280;62776;50.518;6.732;2024-03-23T04:02:42;95875.06;;;3.64;100.00
74346;BME280;62776;50.518;6.732;2024-03-23T04:05:28;95876.78;;;3.63;100.00
74346;BME280;62776;50.518;6.732;2024-03-23T04:08:14;95883.69;;;3.70;100.00
74346;BME280;62776;50.518;6.732;2024-03-23T04:11:02;95882.84;;;3.76;100.00
74346;BME280;62776;50.518;6.732;2024-03-23T04:13:48;95897.41;;;3.77;100.00
74346;BME280;62776;50.518;6.732;2024-03-23T04:16:35;95888.03;;;3.83;100.00
74346;BME280;62776;50.518;6.732;2024-03-23T04:19:24;95891.47;;;3.88;100.00
74346;BME280;62776;50.518;6.732;2024-03-23T04:22:10;95900.06;;;3.93;100.00
74346;BME280;62776;50.518;6.732;2024-03-23T04:24:57;95904.34;;;3.90;100.00
74346;BME280;62776;50.518;6.732;2024-03-23T04:27:46;95905.19;;;3.86;100.00
74346;BME280;62776;50.518;6.732;2024-03-23T04:30:32;95898.34;;;3.89;100.00
74346;BME280;62776;50.518;6.732;2024-03-23T04:33:20;95907.78;;;3.87;100.00
74346;BME280;62776;50.518;6.732;2024-03-23T04:36:06;95909.50;;;3.96;100.00
74346;BME280;62776;50.518;6.732;2024-03-23T04:38:53;95915.53;;;4.04;100.00
74346;BME280;62776;50.518;6.732;2024-03-23T04:41:40;95924.13;;;4.03;100.00
74346;BME280;62776;50.518;6.732;2024-03-23T04:44:27;95918.13;;;4.01;100.00
74346;BME280;62776;50.518;6.732;2024-03-23T04:47:14;95910.41;;;4.10;100.00
74346;BME280;62776;50.518;6.732;2024-03-23T04:50:00;95912.16;;;4.06;100.00
74346;BME280;62776;50.518;6.732;2024-03-23T04:52:47;95914.72;;;4.06;100.00
74346;BME280;62776;50.518;6.732;2024-03-23T04:55:33;95918.13;;;4.07;100.00
74346;BME280;62776;50.518;6.732;2024-03-23T04:58:19;95921.59;;;4.13;100.00
74346;BME280;62776;50.518;6.732;2024-03-23T05:01:05;95905.34;;;4.25;100.00
74346;BME280;62776;50.518;6.732;2024-03-23T05:03:53;95903.66;;;4.26;100.00
74346;BME280;62776;50.518;6.732;2024-03-23T05:06:40;95909.66;;;4.32;100.00
74346;BME280;62776;50.518;6.732;2024-03-23T05:09:26;95905.38;;;4.36;100.00
74346;BME280;62776;50.518;6.732;2024-03-23T05:12:15;95900.22;;;4.33;100.00
74346;BME280;62776;50.518;6.732;2024-03-23T05:15:02;95891.69;;;4.37;100.00
74346;BME280;62776;50.518;6.732;2024-03-23T05:17:49;95899.38;;;4.34;100.00
74346;BME280;62776;50.518;6.732;2024-03-23T05:20:35;95905.34;;;4.34;100.00
74346;BME280;62776;50.518;6.732;2024-03-23T05:23:21;95907.94;;;4.36;100.00
74346;BME280;62776;50.518;6.732;2024-03-23T05:26:09;95922.56;;;4.41;100.00
74346;BME280;62776;50.518;6.732;2024-03-23T05:28:56;95913.13;;;4.48;100.00
74346;BME280;62776;50.518;6.732;2024-03-23T05:31:42;95914.84;;;4.56;100.00
74346;BME280;62776;50.518;6.732;2024-03-23T05:34:28;95909.72;;;4.59;100.00
74346;BME280;62776;50.518;6.732;2024-03-23T05:37:15;95917.44;;;4.59;100.00
74346;BME280;62776;50.518;6.732;2024-03-23T05:40:02;95930.34;;;4.61;100.00
74346;BME280;62776;50.518;6.732;2024-03-23T05:42:49;95933.75;;;4.63;100.00
74346;BME280;62776;50.518;6.732;2024-03-23T05:45:38;95920.03;;;4.64;100.00
74346;BME280;62776;50.518;6.732;2024-03-23T05:48:27;95924.34;;;4.66;100.00
74346;BME280;62776;50.518;6.732;2024-03-23T05:51:14;95922.59;;;4.62;100.00
74346;BME280;62776;50.518;6.732;2024-03-23T05:54:00;95921.75;;;4.66;100.00
74346;BME280;62776;50.518;6.732;2024-03-23T05:56:47;95921.75;;;4.68;100.00
74346;BME280;62776;50.518;6.732;2024-03-23T05:59:33;95926.91;;;4.71;100.00
74346;BME280;62776;50.518;6.732;2024-03-23T06:02:22;95922.59;;;4.67;100.00
74346;BME280;62776;50.518;6.732;2024-03-23T06:05:08;95917.47;;;4.68;100.00
74346;BME280;62776;50.518;6.732;2024-03-23T06:07:55;95924.34;;;4.69;100.00
74346;BME280;62776;50.518;6.732;2024-03-23T06:10:41;95931.19;;;4.67;100.00
74346;BME280;62776;50.518;6.732;2024-03-23T06:13:27;95938.91;;;4.63;100.00
74346;BME280;62776;50.518;6.732;2024-03-23T06:16:16;95947.47;;;4.59;100.00
74346;BME280;62776;50.518;6.732;2024-03-23T06:19:02;95937.16;;;4.57;100.00
74346;BME280;62776;50.518;6.732;2024-03-23T06:21:50;95944.91;;;4.53;100.00
74346;BME280;62776;50.518;6.732;2024-03-23T06:24:36;95949.13;;;4.48;100.00
74346;BME280;62776;50.518;6.732;2024-03-23T06:27:23;95946.56;;;4.48;100.00
74346;BME280;62776;50.518;6.732;2024-03-23T06:30:09;95944.00;;;4.45;100.00
74346;BME280;62776;50.518;6.732;2024-03-23T06:32:56;95948.25;;;4.38;100.00
74346;BME280;62776;50.518;6.732;2024-03-23T06:35:42;95950.00;;;4.39;100.00
74346;BME280;62776;50.518;6.732;2024-03-23T06:38:28;95949.16;;;4.42;100.00
74346;BME280;62776;50.518;6.732;2024-03-23T06:41:15;95954.22;;;4.34;100.00
74346;BME280;62776;50.518;6.732;2024-03-23T06:44:02;95948.25;;;4.38;100.00
74346;BME280;62776;50.518;6.732;2024-03-23T06:46:48;95952.56;;;4.44;100.00
74346;BME280;62776;50.518;6.732;2024-03-23T06:49:35;95946.56;;;4.48;100.00
74346;BME280;62776;50.518;6.732;2024-03-23T06:52:21;95950.03;;;4.54;100.00
74346;BME280;62776;50.518;6.732;2024-03-23T06:55:07;95952.59;;;4.59;100.00
74346;BME280;62776;50.518;6.732;2024-03-23T06:57:55;95952.63;;;4.63;100.00
74346;BME280;62776;50.518;6.732;2024-03-23T07:00:42;95957.75;;;4.59;100.00
74346;BME280;62776;50.518;6.732;2024-03-23T07:03:28;95959.50;;;4.61;100.00
74346;BME280;62776;50.518;6.732;2024-03-23T07:06:15;95969.81;;;4.66;100.00
74346;BME280;62776;50.518;6.732;2024-03-23T07:09:01;95975.81;;;4.68;100.00
74346;BME280;62776;50.518;6.732;2024-03-23T07:11:47;95974.09;;;4.70;100.00
74346;BME280;62776;50.518;6.732;2024-03-23T07:14:33;95973.28;;;4.80;100.00
74346;BME280;62776;50.518;6.732;2024-03-23T07:17:20;95980.16;;;4.87;100.00
74346;BME280;62776;50.518;6.732;2024-03-23T07:20:06;95983.59;;;4.88;100.00
74346;BME280;62776;50.518;6.732;2024-03-23T07:22:56;95969.84;;;4.98;100.00
74346;BME280;62776;50.518;6.732;2024-03-23T07:25:43;95970.75;;;5.09;100.00
74346;BME280;62776;50.518;6.732;2024-03-23T07:28:29;95968.19;;;5.10;100.00
74346;BME280;62776;50.518;6.732;2024-03-23T07:31:17;95968.19;;;5.16;100.00
74346;BME280;62776;50.518;6.732;2024-03-23T07:34:04;95966.47;;;5.24;100.00
74346;BME280;62776;50.518;6.732;2024-03-23T07:36:51;95972.50;;;5.35;100.00
74346;BME280;62776;50.518;6.732;2024-03-23T07:39:39;95962.19;;;5.37;100.00
74346;BME280;62776;50.518;6.732;2024-03-23T07:42:25;95969.91;;;5.48;100.00
74346;BME280;62776;50.518;6.732;2024-03-23T07:45:12;95979.38;;;5.68;100.00
74346;BME280;62776;50.518;6.732;2024-03-23T07:47:58;95986.25;;;5.90;100.00
74346;BME280;62776;50.518;6.732;2024-03-23T07:50:44;95983.66;;;5.92;100.00
74346;BME280;62776;50.518;6.732;2024-03-23T07:53:31;95987.94;;;5.78;100.00
74346;BME280;62776;50.518;6.732;2024-03-23T07:56:18;95986.22;;;5.69;100.00
74346;BME280;62776;50.518;6.732;2024-03-23T07:59:09;95989.66;;;5.73;100.00
74346;BME280;62776;50.518;6.732;2024-03-23T08:01:55;95987.13;;;5.85;100.00
74346;BME280;62776;50.518;6.732;2024-03-23T08:04:43;95999.09;;;6.03;100.00
74346;BME280;62776;50.518;6.732;2024-03-23T08:07:29;96001.66;;;6.10;100.00
74346;BME280;62776;50.518;6.732;2024-03-23T08:10:15;95993.09;;;6.07;100.00
74346;BME280;62776;50.518;6.732;2024-03-23T08:13:04;96001.66;;;6.07;100.00
74346;BME280;62776;50.518;6.732;2024-03-23T08:15:52;96000.81;;;6.08;100.00
74346;BME280;62776;50.518;6.732;2024-03-23T08:18:38;95999.97;;;6.12;100.00
74346;BME280;62776;50.518;6.732;2024-03-23T08:21:24;95999.06;;;6.25;100.00
74346;BME280;62776;50.518;6.732;2024-03-23T08:24:12;95999.88;;;6.39;100.00
74346;BME280;62776;50.518;6.732;2024-03-23T08:26:58;95995.50;;;6.58;100.00
74346;BME280;62776;50.518;6.732;2024-03-23T08:29:46;95995.56;;;6.44;100.00
74346;BME280;62776;50.518;6.732;2024-03-23T08:32:32;95997.31;;;6.30;100.00
74346;BME280;62776;50.518;6.732;2024-03-23T08:35:18;96003.38;;;6.17;100.00
74346;BME280;62776;50.518;6.732;2024-03-23T08:38:05;96006.81;;;6.28;100.00
74346;BME280;62776;50.518;6.732;2024-03-23T08:41:08;95994.72;;;6.32;100.00
74346;BME280;62776;50.518;6.732;2024-03-23T08:43:54;96001.66;;;6.22;100.00
74346;BME280;62776;50.518;6.732;2024-03-23T08:46:40;95987.78;;;6.49;100.00
74346;BME280;62776;50.518;6.732;2024-03-23T08:49:27;95989.44;;;6.65;100.00
74346;BME280;62776;50.518;6.732;2024-03-23T08:52:13;95989.44;;;6.73;100.00
74346;BME280;62776;50.518;6.732;2024-03-23T08:55:00;95995.38;;;6.85;100.00
74346;BME280;62776;50.518;6.732;2024-03-23T08:57:47;95986.81;;;6.76;100.00
74346;BME280;62776;50.518;6.732;2024-03-23T09:00:33;95995.44;;;6.78;100.00
74346;BME280;62776;50.518;6.732;2024-03-23T09:03:20;95991.03;;;6.96;100.00
74346;BME280;62776;50.518;6.732;2024-03-23T09:06:11;95992.69;;;7.00;100.00
74346;BME280;62776;50.518;6.732;2024-03-23T09:08:58;95984.03;;;7.12;100.00
74346;BME280;62776;50.518;6.732;2024-03-23T09:11:46;95985.91;;;6.84;100.00
74346;BME280;62776;50.518;6.732;2024-03-23T09:14:35;95985.09;;;6.78;100.00
74346;BME280;62776;50.518;6.732;2024-03-23T09:17:22;95975.69;;;6.66;100.00
74346;BME280;62776;50.518;6.732;2024-03-23T09:20:10;95986.78;;;6.79;100.00
74346;BME280;62776;50.518;6.732;2024-03-23T09:22:56;95979.06;;;6.77;100.00
74346;BME280;62776;50.518;6.732;2024-03-23T09:25:42;95966.00;;;7.01;100.00
74346;BME280;62776;50.518;6.732;2024-03-23T09:28:28;95952.94;;;7.26;100.00
74346;BME280;62776;50.518;6.732;2024-03-23T09:31:16;95950.97;;;7.58;100.00
74346;BME280;62776;50.518;6.732;2024-03-23T09:34:03;95961.06;;;7.85;100.00
74346;BME280;62776;50.518;6.732;2024-03-23T09:36:52;95953.09;;;8.03;100.00
74346;BME280;62776;50.518;6.732;2024-03-23T09:39:40;95949.47;;;8.21;100.00
74346;BME280;62776;50.518;6.732;2024-03-23T09:42:27;95952.72;;;8.41;100.00
74346;BME280;62776;50.518;6.732;2024-03-23T09:45:30;95951.31;;;8.10;100.00
74346;BME280;62776;50.518;6.732;2024-03-23T09:48:18;95964.97;;;8.27;100.00
74346;BME280;62776;50.518;6.732;2024-03-23T09:51:05;95970.53;;;7.86;100.00
74346;BME280;62776;50.518;6.732;2024-03-23T09:53:55;95980.28;;;7.57;100.00
74346;BME280;62776;50.518;6.732;2024-03-23T09:56:41;95988.97;;;7.45;100.00
74346;BME280;62776;50.518;6.732;2024-03-23T09:59:28;95996.97;;;7.06;100.00
74346;BME280;62776;50.518;6.732;2024-03-23T10:02:18;95997.22;;;6.64;100.00
74346;BME280;62776;50.518;6.732;2024-03-23T10:05:20;95995.63;;;6.28;100.00
74346;BME280;62776;50.518;6.732;2024-03-23T10:11:13;95989.53;;;6.41;100.00
74346;BME280;62776;50.518;6.732;2024-03-23T10:14:01;95992.94;;;6.58;100.00
74346;BME280;62776;50.518;6.732;2024-03-23T10:16:47;96013.38;;;7.00;100.00
74346;BME280;62776;50.518;6.732;2024-03-23T10:19:33;96020.22;;;7.06;100.00
74346;BME280;62776;50.518;6.732;2024-03-23T10:22:21;96036.88;;;6.26;100.00
74346;BME280;62776;50.518;6.732;2024-03-23T10:25:10;96035.22;;;5.60;100.00
74346;BME280;62776;50.518;6.732;2024-03-23T10:28:00;96030.00;;;5.22;100.00
74346;BME280;62776;50.518;6.732;2024-03-23T10:30:48;96035.97;;;4.91;100.00
74346;BME280;62776;50.518;6.732;2024-03-23T10:33:34;96029.84;;;4.68;100.00
74346;BME280;62776;50.518;6.732;2024-03-23T10:36:22;96029.94;;;4.83;100.00
74346;BME280;62776;50.518;6.732;2024-03-23T10:39:08;96014.53;;;5.07;100.00
74346;BME280;62776;50.518;6.732;2024-03-23T10:41:56;96021.41;;;5.17;100.00
74346;BME280;62776;50.518;6.732;2024-03-23T10:44:44;96023.13;;;5.09;100.00
74346;BME280;62776;50.518;6.732;2024-03-23T10:47:34;96019.69;;;5.07;100.00
74346;BME280;62776;50.518;6.732;2024-03-23T10:50:25;96019.66;;;4.95;100.00
74346;BME280;62776;50.518;6.732;2024-03-23T10:53:12;96020.50;;;4.93;100.00
74346;BME280;62776;50.518;6.732;2024-03-23T10:56:02;96012.72;;;4.76;100.00
74346;BME280;62776;50.518;6.732;2024-03-23T10:58:50;95992.88;;;4.48;100.00
74346;BME280;62776;50.518;6.732;2024-03-23T11:01:56;95991.09;;;4.30;100.00
74346;BME280;62776;50.518;6.732;2024-03-23T11:04:43;95998.00;;;4.40;100.00
74346;BME280;62776;50.518;6.732;2024-03-23T11:07:33;96001.38;;;4.32;100.00
74346;BME280;62776;50.518;6.732;2024-03-23T11:10:31;95984.19;;;4.18;100.00
74346;BME280;62776;50.518;6.732;2024-03-23T11:13:23;95987.69;;;4.31;100.00
74346;BME280;62776;50.518;6.732;2024-03-23T11:16:14;95983.47;;;4.54;100.00
74346;BME280;62776;50.518;6.732;2024-03-23T11:19:34;95981.81;;;4.73;100.00
74346;BME280;62776;50.518;6.732;2024-03-23T11:22:41;95978.44;;;4.98;100.00
74346;BME280;62776;50.518;6.732;2024-03-23T11:25:28;95986.22;;;5.39;100.00
74346;BME280;62776;50.518;6.732;2024-03-23T11:28:16;95983.66;;;5.56;100.00
74346;BME280;62776;50.518;6.732;2024-03-23T11:31:10;95994.81;;;5.83;100.00
74346;BME280;62776;50.518;6.732;2024-03-23T11:34:09;95993.94;;;5.78;100.00
74346;BME280;62776;50.518;6.732;2024-03-23T11:37:05;95991.41;;;5.74;100.00
74346;BME280;62776;50.518;6.732;2024-03-23T11:39:55;95987.06;;;5.61;100.00
74346;BME280;62776;50.518;6.732;2024-03-23T11:42:54;95982.81;;;5.32;100.00
74346;BME280;62776;50.518;6.732;2024-03-23T11:45:44;95986.22;;;5.34;100.00
74346;BME280;62776;50.518;6.732;2024-03-23T11:48:33;95975.06;;;5.38;100.00
74346;BME280;62776;50.518;6.732;2024-03-23T11:51:23;95963.03;;;5.25;100.00
74346;BME280;62776;50.518;6.732;2024-03-23T11:54:11;95958.75;;;5.26;100.00
74346;BME280;62776;50.518;6.732;2024-03-23T11:56:58;95957.88;;;5.25;100.00
74346;BME280;62776;50.518;6.732;2024-03-23T11:59:45;95954.47;;;5.35;100.00
74346;BME280;62776;50.518;6.732;2024-03-23T12:02:32;95955.31;;;5.41;100.00
74346;BME280;62776;50.518;6.732;2024-03-23T12:05:19;95938.13;;;5.46;100.00
74346;BME280;62776;50.518;6.732;2024-03-23T12:08:28;95949.31;;;5.26;100.00
74346;BME280;62776;50.518;6.732;2024-03-23T12:11:17;95957.03;;;5.26;100.00
74346;BME280;62776;50.518;6.732;2024-03-23T12:14:07;95952.72;;;5.13;100.00
74346;BME280;62776;50.518;6.732;2024-03-23T12:16:53;95938.13;;;5.44;100.00
74346;BME280;62776;50.518;6.732;2024-03-23T12:19:41;95946.72;;;5.57;100.00
74346;BME280;62776;50.518;6.732;2024-03-23T12:22:28;95940.69;;;5.85;100.00
74346;BME280;62776;50.518;6.732;2024-03-23T12:25:18;95933.75;;;6.05;100.00
74346;BME280;62776;50.518;6.732;2024-03-23T12:28:05;95931.13;;;6.13;100.00
74346;BME280;62776;50.518;6.732;2024-03-23T12:30:52;95919.09;;;6.19;100.00
74346;BME280;62776;50.518;6.732;2024-03-23T12:33:39;95921.63;;;6.30;100.00
74346;BME280;62776;50.518;6.732;2024-03-23T12:36:30;95919.84;;;6.45;100.00
74346;BME280;62776;50.518;6.732;2024-03-23T12:39:16;95917.22;;;6.56;100.00
74346;BME280;62776;50.518;6.732;2024-03-23T12:42:03;95916.31;;;6.65;100.00
74346;BME280;62776;50.518;6.732;2024-03-23T12:44:56;95904.16;;;6.76;100.00
74346;BME280;62776;50.518;6.732;2024-03-23T12:47:42;95901.59;;;6.77;100.00
74346;BME280;62776;50.518;6.732;2024-03-23T12:50:28;95908.47;;;6.77;100.00
74346;BME280;62776;50.518;6.732;2024-03-23T12:53:14;95912.81;;;6.72;100.00
74346;BME280;62776;50.518;6.732;2024-03-23T12:56:03;95918.00;;;6.66;100.00
74346;BME280;62776;50.518;6.732;2024-03-23T12:58:53;95898.25;;;6.62;100.00
74346;BME280;62776;50.518;6.732;2024-03-23T13:01:43;95894.75;;;6.70;100.00
74346;BME280;62776;50.518;6.732;2024-03-23T13:04:29;95891.19;;;6.89;100.00
74346;BME280;62776;50.518;6.732;2024-03-23T13:07:17;95880.81;;;6.97;100.00
74346;BME280;62776;50.518;6.732;2024-03-23T13:10:04;95875.59;;;7.01;100.00
74346;BME280;62776;50.518;6.732;2024-03-23T13:12:53;95876.41;;;7.08;100.00
74346;BME280;62776;50.518;6.732;2024-03-23T13:15:39;95880.50;;;7.32;100.00
74346;BME280;62776;50.518;6.732;2024-03-23T13:18:25;95874.44;;;7.34;100.00
74346;BME280;62776;50.518;6.732;2024-03-23T13:21:12;95873.69;;;7.25;100.00
74346;BME280;62776;50.518;6.732;2024-03-23T13:23:58;95866.69;;;7.34;100.00
74346;BME280;62776;50.518;6.732;2024-03-23T13:26:44;95853.66;;;7.45;100.00
74346;BME280;62776;50.518;6.732;2024-03-23T13:29:34;95861.25;;;7.61;100.00
74346;BME280;62776;50.518;6.732;2024-03-23T13:32:21;95863.69;;;7.80;100.00
74346;BME280;62776;50.518;6.732;2024-03-23T13:35:07;95864.47;;;7.85;100.00
74346;BME280;62776;50.518;6.732;2024-03-23T13:37:53;95861.13;;;7.77;100.00
74346;BME280;62776;50.518;6.732;2024-03-23T13:40:39;95850.94;;;7.58;100.00
74346;BME280;62776;50.518;6.732;2024-03-23T13:43:34;95856.06;;;7.64;100.00
74346;BME280;62776;50.518;6.732;2024-03-23T13:46:21;95865.56;;;7.62;100.00
74346;BME280;62776;50.518;6.732;2024-03-23T13:49:30;95899.44;;;7.35;100.00
74346;BME280;62776;50.518;6.732;2024-03-23T13:52:18;95904.59;;;7.34;100.00
74346;BME280;62776;50.518;6.732;2024-03-23T13:55:08;95903.03;;;7.16;100.00
74346;BME280;62776;50.518;6.732;2024-03-23T13:57:57;95906.69;;;6.89;100.00
74346;BME280;62776;50.518;6.732;2024-03-23T14:00:45;95857.50;;;7.03;100.00
74346;BME280;62776;50.518;6.732;2024-03-23T14:03:31;95879.78;;;7.16;100.00
74346;BME280;62776;50.518;6.732;2024-03-23T14:06:17;95883.28;;;7.06;100.00
74346;BME280;62776;50.518;6.732;2024-03-23T14:09:03;95878.88;;;7.20;100.00
74346;BME280;62776;50.518;6.732;2024-03-23T14:11:49;95875.25;;;7.39;100.00
74346;BME280;62776;50.518;6.732;2024-03-23T14:14:36;95874.09;;;7.73;100.00
74346;BME280;62776;50.518;6.732;2024-03-23T14:17:22;95871.56;;;8.42;100.00
74346;BME280;62776;50.518;6.732;2024-03-23T14:20:09;95865.81;;;8.83;100.00
74346;BME280;62776;50.518;6.732;2024-03-23T14:22:57;95865.34;;;9.65;100.00
74346;BME280;62776;50.518;6.732;2024-03-23T14:25:43;95861.03;;;10.53;100.00
74346;BME280;62776;50.518;6.732;2024-03-23T14:28:30;95863.53;;;10.97;100.00
74346;BME280;62776;50.518;6.732;2024-03-23T14:31:19;95862.03;;;11.58;100.00
74346;BME280;62776;50.518;6.732;2024-03-23T14:34:09;95852.88;;;12.09;96.72
74346;BME280;62776;50.518;6.732;2024-03-23T14:36:56;95851.78;;;11.52;100.00
74346;BME280;62776;50.518;6.732;2024-03-23T14:39:42;95853.69;;;10.72;100.00
74346;BME280;62776;50.518;6.732;2024-03-23T14:42:30;95867.44;;;9.92;100.00
74346;BME280;62776;50.518;6.732;2024-03-23T14:45:20;95867.16;;;9.08;100.00
74346;BME280;62776;50.518;6.732;2024-03-23T14:48:06;95890.31;;;8.62;100.00
74346;BME280;62776;50.518;6.732;2024-03-23T14:50:57;95911.72;;;8.00;100.00
74346;BME280;62776;50.518;6.732;2024-03-23T14:53:46;95923.69;;;7.21;100.00
74346;BME280;62776;50.518;6.732;2024-03-23T14:56:34;95948.09;;;6.74;100.00
74346;BME280;62776;50.518;6.732;2024-03-23T14:59:20;95938.84;;;6.31;100.00
74346;BME280;62776;50.518;6.732;2024-03-23T15:02:08;95919.16;;;6.03;100.00
74346;BME280;62776;50.518;6.732;2024-03-23T15:04:54;95919.19;;;5.71;100.00
74346;BME280;62776;50.518;6.732;2024-03-23T15:07:41;95896.06;;;5.34;100.00
74346;BME280;62776;50.518;6.732;2024-03-23T15:10:27;95885.75;;;5.28;100.00
74346;BME280;62776;50.518;6.732;2024-03-23T15:13:13;95859.97;;;5.19;100.00
74346;BME280;62776;50.518;6.732;2024-03-23T15:16:00;95861.72;;;5.17;100.00
74346;BME280;62776;50.518;6.732;2024-03-23T15:18:47;95860.00;;;5.16;100.00
74346;BME280;62776;50.518;6.732;2024-03-23T15:21:33;95861.69;;;5.08;100.00
74346;BME280;62776;50.518;6.732;2024-03-23T15:24:19;95856.56;;;5.04;100.00
74346;BME280;62776;50.518;6.732;2024-03-23T15:27:06;95856.56;;;5.08;100.00
74346;BME280;62776;50.518;6.732;2024-03-23T15:29:56;95858.28;;;5.06;100.00
74346;BME280;62776;50.518;6.732;2024-03-23T15:32:46;95862.56;;;5.03;100.00
74346;BME280;62776;50.518;6.732;2024-03-23T15:35:33;95857.41;;;5.12;100.00
74346;BME280;62776;50.518;6.732;2024-03-23T15:38:19;95850.56;;;5.15;100.00
74346;BME280;62776;50.518;6.732;2024-03-23T15:41:05;95848.81;;;5.22;100.00
74346;BME280;62776;50.518;6.732;2024-03-23T15:43:52;95853.09;;;5.40;100.00
74346;BME280;62776;50.518;6.732;2024-03-23T15:46:42;95851.41;;;5.29;100.00
74346;BME280;62776;50.518;6.732;2024-03-23T15:49:28;95849.66;;;5.31;100.00
74346;BME280;62776;50.518;6.732;2024-03-23T15:52:15;95854.81;;;5.28;100.00
74346;BME280;62776;50.518;6.732;2024-03-23T15:55:02;95853.09;;;5.46;100.00
74346;BME280;62776;50.518;6.732;2024-03-23T15:57:54;95854.81;;;5.39;100.00
74346;BME280;62776;50.518;6.732;2024-03-23T16:00:43;95857.41;;;5.27;100.00
74346;BME280;62776;50.518;6.732;2024-03-23T16:03:30;95857.41;;;5.15;100.00